Time;durP1;ratioP1;P1;durP2;ratioP2;P2;SDS_P1;SDS_P2;PMS_P1;PMS_P2;Temp;Humidity;BMP_temperature;BMP_pressure;BME280_temperature;BME280_humidity;BME280_pressure;Samples;Min_cycle;Max_cycle;Signal;HPM_P1;HPM_P2
2023/09/23 00:01:39;;;;;;;4.28;3.33;;;12.40;99.90;;;;;;4995029;28;20044;-81
2023/09/23 00:04:09;;;;;;;5.07;3.15;;;12.40;99.90;;;;;;5000971;28;20397;-81
2023/09/23 00:06:34;;;;;;;5.28;3.28;;;12.30;99.90;;;;;;4999999;28;20452;-81
2023/09/23 00:09:04;;;;;;;5.82;3.60;;;12.30;99.90;;;;;;4977613;28;20072;-81
2023/09/23 00:11:30;;;;;;;3.72;3.25;;;12.40;99.90;;;;;;4993956;28;20119;-81
2023/09/23 00:13:56;;;;;;;4.72;3.35;;;12.30;99.90;;;;;;4994449;28;20363;-81
2023/09/23 00:16:22;;;;;;;4.43;3.40;;;12.30;99.90;;;;;;4997710;28;20053;-81
2023/09/23 00:18:47;;;;;;;5.45;3.42;;;12.30;99.90;;;;;;4991415;28;20070;-81
2023/09/23 00:21:13;;;;;;;3.15;2.80;;;12.30;99.90;;;;;;4980647;28;20127;-81
2023/09/23 00:23:45;;;;;;;4.38;3.00;;;12.30;99.90;;;;;;4999506;28;20037;-81
2023/09/23 00:26:11;;;;;;;3.22;2.85;;;12.40;99.90;;;;;;4997766;28;20450;-81
2023/09/23 00:28:40;;;;;;;4.60;2.85;;;12.30;99.90;;;;;;4998832;28;20117;-81
2023/09/23 00:31:10;;;;;;;5.50;2.75;;;12.30;99.90;;;;;;4996097;28;20048;-81
2023/09/23 00:33:39;;;;;;;4.47;2.95;;;12.30;99.90;;;;;;4998577;28;20041;-81
2023/09/23 00:36:07;;;;;;;3.25;2.42;;;12.30;99.90;;;;;;4985318;28;20130;-81
2023/09/23 00:38:33;;;;;;;4.75;2.40;;;12.30;99.90;;;;;;4998629;28;20104;-81
2023/09/23 00:40:58;;;;;;;3.70;2.22;;;12.30;99.90;;;;;;4978851;28;20065;-81
2023/09/23 00:43:24;;;;;;;3.78;2.45;;;12.30;99.90;;;;;;4985287;28;20046;-81
2023/09/23 00:45:54;;;;;;;2.13;1.90;;;12.30;99.90;;;;;;5003412;28;20133;-81
2023/09/23 00:48:21;;;;;;;2.72;2.03;;;12.20;99.90;;;;;;5016435;28;20651;-81
2023/09/23 00:50:48;;;;;;;3.45;2.10;;;12.20;99.90;;;;;;5019059;28;20042;-81
2023/09/23 00:53:14;;;;;;;4.80;2.00;;;12.20;99.90;;;;;;5033882;28;20478;-81
2023/09/23 00:55:49;;;;;;;3.50;1.95;;;12.20;99.90;;;;;;5002329;28;20036;-81
2023/09/23 00:58:15;;;;;;;2.90;1.98;;;12.20;99.90;;;;;;5020423;28;20042;-81
2023/09/23 01:00:43;;;;;;;4.07;1.92;;;12.20;99.90;;;;;;5030273;28;20263;-81
2023/09/23 01:03:11;;;;;;;5.85;2.40;;;12.20;99.90;;;;;;5018018;28;20560;-81
2023/09/23 01:05:40;;;;;;;3.75;2.15;;;12.20;99.90;;;;;;5001996;28;20126;-81
2023/09/23 01:08:18;;;;;;;3.38;2.10;;;12.20;99.90;;;;;;5004058;28;20041;-81
2023/09/23 01:10:44;;;;;;;3.00;1.90;;;12.20;99.90;;;;;;5014454;28;20521;-81
2023/09/23 01:13:11;;;;;;;2.92;1.92;;;12.20;99.90;;;;;;5020224;28;20079;-81
2023/09/23 01:15:40;;;;;;;4.65;2.05;;;12.20;99.90;;;;;;5003278;28;20481;-81
2023/09/23 01:18:08;;;;;;;2.05;1.77;;;12.20;99.90;;;;;;5015506;28;20204;-81
2023/09/23 01:20:36;;;;;;;3.60;2.00;;;12.20;99.90;;;;;;5019348;28;20045;-81
2023/09/23 01:23:04;;;;;;;1.88;1.42;;;12.10;99.90;;;;;;5033563;28;20072;-81
2023/09/23 01:25:30;;;;;;;2.53;1.83;;;12.10;99.90;;;;;;5019355;28;20041;-82
2023/09/23 01:27:56;;;;;;;2.75;1.80;;;12.10;99.90;;;;;;5004516;28;20048;-81
2023/09/23 01:30:22;;;;;;;3.33;1.70;;;12.10;99.90;;;;;;5018856;28;20059;-81
2023/09/23 01:32:51;;;;;;;2.20;1.70;;;12.10;99.90;;;;;;5017484;28;20212;-82
2023/09/23 01:35:20;;;;;;;1.92;1.50;;;12.00;99.90;;;;;;5020568;28;20045;-82
2023/09/23 01:37:46;;;;;;;3.50;1.70;;;12.00;99.90;;;;;;5020084;28;20489;-81
2023/09/23 01:40:17;;;;;;;3.05;1.70;;;12.00;99.90;;;;;;5003560;28;20095;-81
2023/09/23 01:42:44;;;;;;;3.50;1.88;;;12.00;99.90;;;;;;4999172;28;20366;-81
2023/09/23 01:45:10;;;;;;;2.72;1.80;;;12.00;99.90;;;;;;5005994;28;20128;-81
2023/09/23 01:47:37;;;;;;;3.47;1.75;;;12.00;99.90;;;;;;5020309;28;20042;-81
2023/09/23 01:50:03;;;;;;;2.97;1.80;;;12.00;99.90;;;;;;5017111;28;20099;-81
2023/09/23 01:52:29;;;;;;;2.70;1.90;;;12.00;99.90;;;;;;5004557;28;20041;-81
2023/09/23 01:54:55;;;;;;;1.65;1.55;;;12.00;99.90;;;;;;5005662;28;20037;-82
2023/09/23 01:57:21;;;;;;;2.08;1.52;;;12.00;99.90;;;;;;5022001;28;20458;-81
2023/09/23 01:59:47;;;;;;;4.38;2.10;;;12.00;99.90;;;;;;5032911;28;20105;-81
2023/09/23 02:02:12;;;;;;;3.75;2.65;;;12.00;99.90;;;;;;5015728;28;20033;-81
2023/09/23 02:04:38;;;;;;;2.78;1.70;;;12.00;99.90;;;;;;5026849;28;20080;-81
2023/09/23 02:07:04;;;;;;;2.97;1.42;;;12.00;99.90;;;;;;5030209;28;20041;-81
2023/09/23 02:09:30;;;;;;;2.58;1.33;;;12.00;99.90;;;;;;5015198;28;20041;-81
2023/09/23 02:11:59;;;;;;;2.10;1.48;;;12.00;99.90;;;;;;5001338;28;20303;-81
2023/09/23 02:14:25;;;;;;;2.85;1.65;;;12.00;99.90;;;;;;5014893;28;20069;-81
2023/09/23 02:16:51;;;;;;;3.22;1.92;;;12.00;99.90;;;;;;4998814;28;20072;-80
2023/09/23 02:19:19;;;;;;;4.03;2.20;;;12.10;99.90;;;;;;5016385;28;20378;-81
2023/09/23 02:21:46;;;;;;;4.07;2.25;;;12.10;99.90;;;;;;5028686;28;20095;-81
2023/09/23 02:24:11;;;;;;;3.22;2.30;;;12.10;99.90;;;;;;5015809;28;20051;-81
2023/09/23 02:26:37;;;;;;;3.65;2.60;;;12.10;99.90;;;;;;5015353;28;20073;-81
2023/09/23 02:29:04;;;;;;;5.40;2.95;;;12.10;99.90;;;;;;5014152;28;20045;-80
2023/09/23 02:31:31;;;;;;;4.47;3.65;;;12.10;99.90;;;;;;5002189;28;20045;-80
2023/09/23 02:33:57;;;;;;;4.28;3.20;;;12.00;99.90;;;;;;5033540;28;20045;-81
2023/09/23 02:36:23;;;;;;;7.28;3.83;;;12.00;99.90;;;;;;4998668;28;20041;-81
2023/09/23 02:38:49;;;;;;;5.72;4.00;;;11.90;99.90;;;;;;5004409;28;20039;-81
2023/09/23 02:41:14;;;;;;;5.70;3.90;;;11.90;99.90;;;;;;5013844;28;20037;-81
2023/09/23 02:43:40;;;;;;;8.65;4.13;;;11.90;99.90;;;;;;5017223;28;20037;-81
2023/09/23 02:46:06;;;;;;;5.55;3.97;;;11.80;99.90;;;;;;5008211;28;20058;-81
2023/09/23 02:48:35;;;;;;;6.15;4.40;;;11.80;99.90;;;;;;4983405;28;20392;-81
2023/09/23 02:51:04;;;;;;;5.43;4.28;;;11.70;99.90;;;;;;4996065;28;20049;-81
2023/09/23 02:53:30;;;;;;;7.20;4.38;;;11.60;99.90;;;;;;5011691;28;20116;-81
2023/09/23 02:56:05;;;;;;;5.70;4.13;;;11.60;99.90;;;;;;4982303;28;20034;-81
2023/09/23 02:58:30;;;;;;;5.80;4.40;;;11.60;99.90;;;;;;4983104;28;20383;-81
2023/09/23 03:01:01;;;;;;;6.47;4.50;;;11.50;99.90;;;;;;4992905;28;20293;-81
2023/09/23 03:03:27;;;;;;;7.50;4.35;;;11.50;99.90;;;;;;4993774;28;20045;-81
2023/09/23 03:06:02;;;;;;;7.22;4.68;;;11.40;99.90;;;;;;4997897;28;20137;-80
2023/09/23 03:08:29;;;;;;;6.80;4.85;;;11.30;99.90;;;;;;4994694;28;20103;-81
2023/09/23 03:11:02;;;;;;;7.45;5.18;;;11.30;99.90;;;;;;4994825;28;20029;-81
2023/09/23 03:13:37;;;;;;;6.45;5.18;;;11.30;99.90;;;;;;4982307;28;20368;-81
2023/09/23 03:16:10;;;;;;;8.85;5.53;;;11.30;99.90;;;;;;4995191;28;20042;-81
2023/09/23 03:18:42;;;;;;;6.75;5.60;;;11.30;99.90;;;;;;4995012;28;20045;-81
2023/09/23 03:21:10;;;;;;;8.98;6.03;;;11.20;99.90;;;;;;4983800;28;20128;-81
2023/09/23 03:23:40;;;;;;;7.78;6.00;;;11.20;99.90;;;;;;4994523;28;20042;-81
2023/09/23 03:26:08;;;;;;;9.45;6.00;;;11.20;99.90;;;;;;4981979;28;20103;-81
2023/09/23 03:28:36;;;;;;;8.40;6.40;;;11.10;99.90;;;;;;4997919;28;20041;-80
2023/09/23 03:31:03;;;;;;;8.15;6.03;;;11.00;99.90;;;;;;4983466;28;20045;-81
2023/09/23 03:33:29;;;;;;;8.07;6.43;;;11.00;99.90;;;;;;4994178;28;20043;-81
2023/09/23 03:35:55;;;;;;;7.38;6.07;;;11.00;99.90;;;;;;4980892;28;20122;-80
2023/09/23 03:38:21;;;;;;;7.20;6.30;;;11.00;99.90;;;;;;4997025;28;20148;-81
2023/09/23 03:40:54;;;;;;;7.47;5.55;;;10.90;99.90;;;;;;4996013;28;20134;-81
2023/09/23 03:43:20;;;;;;;8.10;6.70;;;10.90;99.90;;;;;;5013030;28;20030;-80
2023/09/23 03:45:47;;;;;;;9.25;6.53;;;10.80;99.90;;;;;;4983280;28;20679;-81
2023/09/23 03:48:14;;;;;;;9.90;6.57;;;10.80;99.90;;;;;;4996536;28;20046;-81
2023/09/23 03:50:39;;;;;;;8.15;6.57;;;10.80;99.90;;;;;;4992838;28;20042;-81
2023/09/23 03:53:05;;;;;;;12.30;7.28;;;10.70;99.90;;;;;;4995225;28;20053;-81
2023/09/23 03:55:31;;;;;;;9.00;6.95;;;10.70;99.90;;;;;;4996310;28;20048;-81
2023/09/23 03:57:57;;;;;;;12.90;7.90;;;10.60;99.90;;;;;;4981436;28;20477;-81
2023/09/23 04:00:27;;;;;;;10.25;7.13;;;10.60;99.90;;;;;;4988412;28;20060;-81
2023/09/23 04:02:54;;;;;;;9.55;7.50;;;10.60;99.90;;;;;;5001624;28;20470;-81
2023/09/23 04:05:25;;;;;;;9.15;7.45;;;10.60;99.90;;;;;;4984017;28;20038;-81
2023/09/23 04:07:51;;;;;;;9.75;7.43;;;10.60;99.90;;;;;;5015965;28;20046;-81
2023/09/23 04:10:18;;;;;;;10.38;7.50;;;10.50;99.90;;;;;;5000527;28;20049;-81
2023/09/23 04:12:43;;;;;;;9.15;7.78;;;10.60;99.90;;;;;;5017114;28;20465;-81
2023/09/23 04:15:09;;;;;;;10.45;8.45;;;10.50;99.90;;;;;;5004012;28;20049;-81
2023/09/23 04:17:39;;;;;;;11.13;8.07;;;10.50;99.90;;;;;;4994730;28;20432;-80
2023/09/23 04:20:18;;;;;;;9.80;7.72;;;10.40;99.90;;;;;;4986060;28;20042;-81
2023/09/23 04:22:46;;;;;;;12.40;8.70;;;10.40;99.90;;;;;;4997163;28;20038;-81
2023/09/23 04:25:13;;;;;;;11.73;8.35;;;10.40;99.90;;;;;;4987618;28;20129;-81
2023/09/23 04:27:40;;;;;;;12.13;9.27;;;10.40;99.90;;;;;;5000210;28;20044;-81
2023/09/23 04:30:09;;;;;;;13.57;9.55;;;10.40;99.90;;;;;;4988363;28;20495;-81
2023/09/23 04:32:41;;;;;;;11.40;8.57;;;10.40;99.90;;;;;;4998132;28;20046;-80
2023/09/23 04:35:09;;;;;;;12.20;8.77;;;10.40;99.90;;;;;;4996062;28;20056;-81
2023/09/23 04:37:38;;;;;;;11.07;8.48;;;10.40;99.90;;;;;;4999519;28;20033;-81
2023/09/23 04:40:11;;;;;;;12.10;8.77;;;10.30;99.90;;;;;;4998591;28;20048;-81
2023/09/23 04:42:38;;;;;;;13.88;9.20;;;10.40;99.90;;;;;;5001634;28;20331;-81
2023/09/23 04:45:09;;;;;;;12.20;8.90;;;10.40;99.90;;;;;;4999921;28;20039;-81
2023/09/23 04:47:38;;;;;;;11.68;8.48;;;10.40;99.90;;;;;;5017032;28;20157;-81
2023/09/23 04:50:05;;;;;;;12.02;8.77;;;10.40;99.90;;;;;;4997412;28;20042;-81
2023/09/23 04:52:31;;;;;;;12.98;9.65;;;10.50;99.90;;;;;;4997519;28;20038;-81
2023/09/23 04:54:57;;;;;;;12.73;9.93;;;10.50;99.90;;;;;;4994785;28;20094;-81
2023/09/23 04:57:23;;;;;;;14.32;9.95;;;10.60;99.90;;;;;;5015296;28;20521;-81
2023/09/23 04:59:48;;;;;;;14.30;10.85;;;10.70;99.90;;;;;;5000401;28;20045;-81
2023/09/23 05:02:18;;;;;;;14.07;10.63;;;10.70;99.90;;;;;;4985324;28;20159;-81
2023/09/23 05:04:48;;;;;;;14.43;10.10;;;10.70;99.90;;;;;;4984544;28;20041;-82
2023/09/23 05:07:14;;;;;;;19.17;9.70;;;10.80;99.90;;;;;;5014608;28;20542;-81
2023/09/23 05:09:41;;;;;;;13.75;10.80;;;10.80;99.90;;;;;;5015286;28;20038;-81
2023/09/23 05:12:10;;;;;;;15.23;10.32;;;10.80;99.90;;;;;;4995662;28;20076;-81
2023/09/23 05:14:36;;;;;;;15.77;9.90;;;10.80;99.90;;;;;;4979988;28;20479;-81
2023/09/23 05:17:04;;;;;;;12.52;8.90;;;10.80;99.90;;;;;;4980236;28;20314;-81
2023/09/23 05:19:33;;;;;;;15.18;9.45;;;10.80;99.90;;;;;;4994052;28;20586;-81
2023/09/23 05:22:00;;;;;;;15.77;8.88;;;10.90;99.90;;;;;;4983022;28;20041;-81
2023/09/23 05:24:26;;;;;;;12.02;8.90;;;10.90;99.90;;;;;;5000547;28;20091;-81
2023/09/23 05:26:55;;;;;;;14.55;8.48;;;10.90;99.90;;;;;;4981859;28;20125;-81
2023/09/23 05:29:24;;;;;;;15.40;9.52;;;10.90;99.90;;;;;;4996532;28;20346;-81
2023/09/23 05:31:50;;;;;;;12.60;8.57;;;10.90;99.90;;;;;;5000346;28;20069;-81
2023/09/23 05:34:18;;;;;;;12.15;8.60;;;10.90;99.90;;;;;;4996580;28;20077;-81
2023/09/23 05:36:45;;;;;;;12.07;8.02;;;10.90;99.90;;;;;;4980166;28;20510;-81
2023/09/23 05:39:14;;;;;;;11.98;9.18;;;10.90;99.90;;;;;;4998504;28;20033;-81
2023/09/23 05:41:39;;;;;;;12.80;8.80;;;10.90;99.90;;;;;;4984010;28;20044;-81
2023/09/23 05:44:07;;;;;;;15.57;9.35;;;10.90;99.90;;;;;;4996496;28;20050;-81
2023/09/23 05:46:34;;;;;;;13.65;9.25;;;10.90;99.90;;;;;;4985179;28;20509;-81
2023/09/23 05:49:05;;;;;;;12.10;8.98;;;10.90;99.90;;;;;;4998004;28;20045;-81
2023/09/23 05:51:33;;;;;;;13.13;8.85;;;10.90;99.90;;;;;;5000866;28;20128;-81
2023/09/23 05:54:02;;;;;;;13.35;9.07;;;10.90;99.90;;;;;;4994464;28;20115;-81
2023/09/23 05:56:28;;;;;;;17.00;9.65;;;10.80;99.90;;;;;;4984802;28;20582;-81
2023/09/23 05:58:54;;;;;;;15.63;9.27;;;10.80;99.90;;;;;;4984296;28;20062;-81
2023/09/23 06:01:19;;;;;;;15.90;9.98;;;10.80;99.90;;;;;;4996462;28;20076;-81
2023/09/23 06:03:45;;;;;;;16.25;9.95;;;10.80;99.90;;;;;;4984144;28;20042;-81
2023/09/23 06:06:11;;;;;;;18.88;10.98;;;10.80;99.90;;;;;;4997486;28;20052;-81
2023/09/23 06:08:37;;;;;;;18.85;11.00;;;10.90;99.90;;;;;;4984285;28;20125;-82
2023/09/23 06:11:04;;;;;;;19.30;11.80;;;10.90;99.90;;;;;;5011887;28;20200;-81
2023/09/23 06:13:34;;;;;;;19.58;12.80;;;10.90;99.90;;;;;;4999199;28;20037;-81
2023/09/23 06:16:04;;;;;;;20.58;13.15;;;11.00;99.90;;;;;;4983763;28;20038;-81
2023/09/23 06:18:30;;;;;;;22.40;13.50;;;11.10;99.90;;;;;;4983707;28;20034;-81
2023/09/23 06:21:04;;;;;;;25.65;14.85;;;11.20;99.90;;;;;;4997047;28;20435;-81
2023/09/23 06:23:31;;;;;;;26.73;14.38;;;11.20;99.90;;;;;;4995397;28;20121;-81
2023/09/23 06:26:00;;;;;;;24.73;15.13;;;11.30;99.90;;;;;;4981787;28;20212;-81
2023/09/23 06:28:26;;;;;;;25.55;14.63;;;11.40;99.90;;;;;;4983410;28;20038;-81
2023/09/23 06:30:52;;;;;;;24.77;15.20;;;11.40;99.90;;;;;;4994917;28;20044;-81
2023/09/23 06:33:18;;;;;;;25.33;15.73;;;11.50;99.90;;;;;;4983683;28;20037;-81
2023/09/23 06:35:45;;;;;;;25.38;15.95;;;11.60;99.90;;;;;;4981783;28;20046;-81
2023/09/23 06:38:11;;;;;;;27.92;16.25;;;11.70;99.90;;;;;;4995554;28;20488;-80
2023/09/23 06:40:37;;;;;;;26.85;16.60;;;11.80;99.90;;;;;;4996573;28;20510;-81
2023/09/23 06:43:03;;;;;;;22.52;14.98;;;11.80;99.90;;;;;;4984895;28;20131;-81
2023/09/23 06:45:29;;;;;;;27.60;15.77;;;11.90;99.90;;;;;;4985782;28;20515;-81
2023/09/23 06:47:55;;;;;;;25.67;16.23;;;12.00;99.90;;;;;;5018205;28;20392;-81
2023/09/23 06:50:21;;;;;;;25.65;16.10;;;12.10;99.90;;;;;;5015284;28;20442;-82
2023/09/23 06:52:46;;;;;;;24.45;15.52;;;12.10;99.90;;;;;;5017156;28;20037;-81
2023/09/23 06:55:12;;;;;;;25.42;15.40;;;12.20;99.90;;;;;;5018117;28;20087;-81
2023/09/23 06:57:38;;;;;;;21.80;14.32;;;12.30;99.90;;;;;;5017246;28;20034;-81
2023/09/23 07:00:06;;;;;;;23.08;14.98;;;12.40;99.90;;;;;;5001899;28;20091;-81
2023/09/23 07:02:32;;;;;;;24.55;15.05;;;12.50;99.90;;;;;;5020625;28;20033;-81
2023/09/23 07:04:58;;;;;;;26.85;16.25;;;12.60;99.90;;;;;;5018148;28;20510;-81
2023/09/23 07:07:24;;;;;;;23.63;15.60;;;12.60;99.90;;;;;;5029847;28;20041;-81
2023/09/23 07:09:49;;;;;;;24.23;15.60;;;12.80;99.90;;;;;;5006382;28;20041;-81
2023/09/23 07:12:15;;;;;;;24.10;15.18;;;12.80;99.90;;;;;;5018999;28;20041;-81
2023/09/23 07:14:44;;;;;;;25.05;14.65;;;12.80;99.90;;;;;;5004111;28;20041;-81
2023/09/23 07:17:09;;;;;;;22.67;15.02;;;12.80;99.90;;;;;;5017517;28;20038;-81
2023/09/23 07:19:35;;;;;;;22.90;14.90;;;12.90;99.90;;;;;;4999619;28;20045;-81
2023/09/23 07:22:02;;;;;;;21.92;14.13;;;12.80;99.90;;;;;;5015475;28;20076;-81
2023/09/23 07:24:29;;;;;;;21.83;14.00;;;12.70;99.90;;;;;;5015230;28;20039;-81
2023/09/23 07:26:58;;;;;;;25.42;15.13;;;12.70;99.90;;;;;;5017881;28;20099;-81
2023/09/23 07:29:24;;;;;;;19.23;13.75;;;12.70;99.90;;;;;;5016051;28;20099;-81
2023/09/23 07:31:52;;;;;;;22.25;14.35;;;12.60;99.90;;;;;;5016572;28;20041;-81
2023/09/23 07:34:18;;;;;;;20.50;14.13;;;12.60;99.90;;;;;;5003450;28;20453;-81
2023/09/23 07:36:43;;;;;;;22.23;14.77;;;12.70;99.90;;;;;;5032804;28;20057;-81
2023/09/23 07:39:10;;;;;;;20.98;14.57;;;12.70;99.90;;;;;;5004388;28;20068;-81
2023/09/23 07:41:36;;;;;;;20.35;14.02;;;12.80;99.90;;;;;;5018015;28;20029;-81
2023/09/23 07:44:03;;;;;;;21.50;14.27;;;13.10;99.90;;;;;;5004202;28;20053;-81
2023/09/23 07:46:28;;;;;;;23.98;14.98;;;13.20;99.90;;;;;;4997893;28;20068;-81
2023/09/23 07:48:54;;;;;;;22.40;14.63;;;13.30;99.90;;;;;;5017018;28;20128;-80
2023/09/23 07:51:20;;;;;;;23.25;14.80;;;13.60;99.90;;;;;;5002589;28;20073;-81
2023/09/23 07:53:45;;;;;;;23.42;14.60;;;13.70;99.90;;;;;;5014472;28;20076;-81
2023/09/23 07:56:11;;;;;;;23.13;15.25;;;13.70;99.90;;;;;;5012110;28;20063;-81
2023/09/23 07:58:37;;;;;;;23.65;14.68;;;13.80;99.90;;;;;;5017236;28;20088;-81
2023/09/23 08:01:03;;;;;;;23.48;14.35;;;13.70;99.90;;;;;;5015284;28;20115;-81
2023/09/23 08:03:29;;;;;;;19.42;13.60;;;13.90;99.90;;;;;;5014558;28;20073;-81
2023/09/23 08:05:55;;;;;;;21.20;14.38;;;14.00;99.90;;;;;;5002604;28;20076;-81
2023/09/23 08:08:21;;;;;;;22.63;14.45;;;14.10;99.90;;;;;;5012580;28;20037;-81
2023/09/23 08:10:49;;;;;;;20.88;14.35;;;14.30;99.90;;;;;;5017863;28;20393;-81
2023/09/23 08:13:16;;;;;;;18.58;13.68;;;14.50;99.90;;;;;;5001014;28;20399;-81
2023/09/23 08:15:41;;;;;;;18.92;13.45;;;14.70;99.90;;;;;;5001026;28;20081;-81
2023/09/23 08:18:07;;;;;;;20.55;14.55;;;15.10;99.90;;;;;;5002218;28;20042;-81
2023/09/23 08:20:33;;;;;;;16.17;11.95;;;15.50;99.90;;;;;;5001839;28;20410;-81
2023/09/23 08:22:58;;;;;;;16.92;11.65;;;15.50;99.90;;;;;;5033860;28;20033;-81
2023/09/23 08:25:24;;;;;;;21.67;12.27;;;15.80;99.90;;;;;;5015068;28;20317;-81
2023/09/23 08:27:50;;;;;;;15.02;10.73;;;15.90;99.90;;;;;;5016138;28;20034;-81
2023/09/23 08:30:17;;;;;;;16.05;11.32;;;15.70;99.90;;;;;;5015654;28;20057;-81
2023/09/23 08:32:42;;;;;;;15.63;9.95;;;16.00;99.90;;;;;;5000539;28;20124;-81
2023/09/23 08:35:14;;;;;;;14.30;9.55;;;15.90;99.90;;;;;;5012752;28;20415;-82
2023/09/23 08:37:40;;;;;;;13.07;9.15;;;15.80;99.90;;;;;;5000052;28;20156;-81
2023/09/23 08:40:10;;;;;;;11.90;9.38;;;16.00;99.90;;;;;;5018678;28;20511;-81
2023/09/23 08:42:43;;;;;;;11.55;8.35;;;16.00;99.90;;;;;;5015165;28;20418;-81
2023/09/23 08:45:10;;;;;;;11.18;8.68;;;15.60;99.90;;;;;;5018446;28;20554;-81
2023/09/23 08:47:38;;;;;;;11.13;8.32;;;15.50;99.90;;;;;;5026740;28;20506;-81
2023/09/23 08:50:11;;;;;;;11.68;8.93;;;15.50;99.90;;;;;;4997483;28;20096;-81
2023/09/23 08:52:37;;;;;;;12.43;7.82;;;15.40;99.90;;;;;;5004707;28;20045;-81
2023/09/23 08:55:04;;;;;;;10.90;8.20;;;15.30;99.90;;;;;;5004148;28;20815;-81
2023/09/23 08:57:33;;;;;;;12.38;8.13;;;15.50;99.90;;;;;;5021124;28;20041;-81
2023/09/23 08:59:59;;;;;;;11.82;8.45;;;15.60;99.90;;;;;;5004473;28;20068;-82
2023/09/23 09:02:25;;;;;;;13.75;7.90;;;15.80;99.90;;;;;;5016002;28;20061;-81
2023/09/23 09:04:55;;;;;;;9.02;7.63;;;16.00;99.90;;;;;;5014314;28;20447;-81
2023/09/23 09:07:35;;;;;;;10.80;7.45;;;16.20;99.90;;;;;;4992660;28;20076;-81
2023/09/23 09:10:04;;;;;;;9.90;7.28;;;16.40;99.90;;;;;;5001801;28;20335;-81
2023/09/23 09:12:36;;;;;;;10.05;8.00;;;16.50;99.90;;;;;;4989870;28;20044;-82
2023/09/23 09:15:03;;;;;;;10.40;7.28;;;16.30;99.90;;;;;;5023481;28;20137;-81
2023/09/23 09:17:33;;;;;;;9.23;6.85;;;16.60;99.90;;;;;;5022269;28;20536;-81
2023/09/23 09:20:08;;;;;;;9.63;6.60;;;16.50;99.90;;;;;;5003894;28;20037;-81
2023/09/23 09:22:34;;;;;;;10.88;6.93;;;16.60;99.90;;;;;;5010849;28;20548;-81
2023/09/23 09:25:16;;;;;;;8.20;6.35;;;16.70;99.90;;;;;;4965343;28;20072;-81
2023/09/23 09:27:43;;;;;;;12.73;6.32;;;16.50;99.90;;;;;;4968676;28;20033;-81
2023/09/23 09:30:13;;;;;;;10.50;6.00;;;16.30;99.90;;;;;;4952228;28;20224;-81
2023/09/23 09:32:49;;;;;;;6.78;5.88;;;16.40;99.90;;;;;;4961894;28;20373;-81
2023/09/23 09:35:17;;;;;;;10.90;6.30;;;17.00;99.90;;;;;;4965518;28;20423;-81
2023/09/23 09:37:53;;;;;;;8.63;6.40;;;17.00;99.90;;;;;;4971177;28;20049;-81
2023/09/23 09:40:29;;;;;;;7.97;6.13;;;17.10;99.90;;;;;;4956071;28;20509;-81
2023/09/23 09:42:59;;;;;;;6.88;5.68;;;17.60;99.90;;;;;;4983144;28;20525;-81
2023/09/23 09:45:40;;;;;;;8.43;5.93;;;17.80;99.90;;;;;;4983385;28;20053;-81
2023/09/23 09:48:19;;;;;;;11.50;5.78;;;17.80;99.90;;;;;;4974928;28;20668;-81
2023/09/23 09:50:48;;;;;;;7.75;5.40;;;17.60;99.90;;;;;;4969285;28;20144;-81
2023/09/23 09:53:22;;;;;;;6.93;5.13;;;17.50;99.90;;;;;;4966171;28;20493;-81
2023/09/23 09:55:51;;;;;;;7.45;4.97;;;17.60;99.90;;;;;;4967771;28;20048;-81
2023/09/23 09:58:17;;;;;;;8.38;5.25;;;17.40;99.90;;;;;;4954230;28;20121;-81
2023/09/23 10:00:47;;;;;;;5.65;4.05;;;17.50;99.90;;;;;;4982541;28;20640;-81
2023/09/23 10:03:16;;;;;;;4.82;3.55;;;17.80;99.90;;;;;;4966991;28;20041;-81
2023/09/23 10:05:51;;;;;;;5.45;3.70;;;18.00;99.90;;;;;;4982068;28;20041;-81
2023/09/23 10:08:24;;;;;;;4.90;4.10;;;17.90;99.90;;;;;;4974752;28;20923;-81
2023/09/23 10:10:58;;;;;;;7.53;3.50;;;18.10;99.90;;;;;;4983383;28;20554;-81
2023/09/23 10:13:29;;;;;;;4.53;3.35;;;18.20;99.90;;;;;;4968512;28;20881;-81
2023/09/23 10:16:19;;;;;;;5.50;3.20;;;18.70;99.90;;;;;;4947969;28;20053;-80
2023/09/23 10:18:54;;;;;;;5.72;3.10;;;18.50;99.90;;;;;;5001759;28;20042;-81
2023/09/23 10:21:24;;;;;;;5.53;3.17;;;18.60;99.90;;;;;;5014546;28;20108;-81
2023/09/23 10:23:51;;;;;;;4.93;2.92;;;18.90;99.90;;;;;;5014463;28;20475;-81
2023/09/23 10:26:19;;;;;;;7.65;3.28;;;19.10;99.90;;;;;;5015390;28;20474;-81
2023/09/23 10:29:03;;;;;;;6.75;3.88;;;19.50;99.90;;;;;;5028943;28;20037;-81
2023/09/23 10:31:31;;;;;;;4.72;2.90;;;19.00;99.90;;;;;;5031605;28;20045;-81
2023/09/23 10:33:56;;;;;;;6.03;3.00;;;19.40;99.90;;;;;;5034875;28;20052;-81
2023/09/23 10:36:23;;;;;;;4.68;2.97;;;18.90;99.90;;;;;;4995968;28;20042;-81
2023/09/23 10:38:49;;;;;;;5.22;2.88;;;18.20;99.90;;;;;;5013620;28;20037;-82
2023/09/23 10:41:15;;;;;;;6.28;3.03;;;17.80;99.90;;;;;;5016327;28;20147;-83
2023/09/23 10:43:41;;;;;;;4.60;2.85;;;17.70;99.90;;;;;;5012254;28;20042;-82
2023/09/23 10:46:07;;;;;;;6.63;3.30;;;17.50;99.90;;;;;;5030692;28;20076;-82
2023/09/23 10:48:34;;;;;;;5.53;3.15;;;17.20;99.90;;;;;;5013019;28;20045;-83
2023/09/23 10:51:00;;;;;;;5.15;2.85;;;17.40;99.90;;;;;;5032713;28;20106;-82
2023/09/23 10:53:30;;;;;;;4.25;2.67;;;17.70;99.90;;;;;;5016206;28;20041;-82
2023/09/23 10:55:56;;;;;;;3.55;2.75;;;17.80;99.90;;;;;;5000938;28;20060;-82
2023/09/23 10:58:22;;;;;;;8.23;2.97;;;18.00;99.90;;;;;;5002674;28;20091;-82
2023/09/23 11:00:50;;;;;;;171.45;16.55;;;18.20;99.90;;;;;;5029505;28;20081;-82
2023/09/23 11:03:17;;;;;;;72.45;7.65;;;19.00;99.90;;;;;;5014959;28;20124;-82
2023/09/23 11:05:44;;;;;;;200.43;19.77;;;18.90;99.90;;;;;;5001540;28;20088;-81
2023/09/23 11:08:12;;;;;;;189.00;18.55;;;18.70;99.90;;;;;;5003490;28;20041;-82
2023/09/23 11:10:42;;;;;;;239.35;19.10;;;18.60;99.90;;;;;;5000252;28;20049;-80
2023/09/23 11:13:11;;;;;;;5.95;2.30;;;18.60;99.90;;;;;;5003934;28;20325;-81
2023/09/23 11:15:39;;;;;;;33.33;4.72;;;18.30;99.90;;;;;;5017302;28;20112;-83
2023/09/23 11:18:10;;;;;;;16.58;2.92;;;18.00;99.90;;;;;;5030805;28;20041;-84
2023/09/23 11:20:41;;;;;;;14.27;2.90;;;17.80;99.90;;;;;;5015694;28;20029;-84
2023/09/23 11:23:07;;;;;;;11.93;3.00;;;17.80;99.90;;;;;;5003922;28;20033;-81
2023/09/23 11:25:46;;;;;;;48.85;5.72;;;17.60;99.90;;;;;;5018531;28;20052;-82
2023/09/23 11:28:20;;;;;;;11.07;3.08;;;17.60;99.90;;;;;;5019386;28;20352;-81
2023/09/23 11:30:47;;;;;;;10.05;2.83;;;17.60;99.90;;;;;;5030194;28;20121;-83
2023/09/23 11:33:13;;;;;;;22.45;3.33;;;17.90;99.90;;;;;;5029447;28;20524;-82
2023/09/23 11:35:39;;;;;;;35.92;4.28;;;17.90;99.90;;;;;;5015303;28;20038;-81
2023/09/23 11:38:05;;;;;;;3.35;2.20;;;18.00;99.90;;;;;;5015838;28;20045;-80
2023/09/23 11:40:34;;;;;;;11.63;2.45;;;17.90;99.90;;;;;;5031150;28;20033;-81
2023/09/23 11:43:00;;;;;;;7.82;1.88;;;17.90;99.90;;;;;;5031877;28;20034;-81
2023/09/23 11:45:27;;;;;;;30.00;3.92;;;17.80;99.90;;;;;;5000720;28;20053;-81
2023/09/23 11:47:55;;;;;;;4.45;2.58;;;17.90;99.90;;;;;;5027921;28;20050;-82
2023/09/23 11:50:21;;;;;;;8.60;2.30;;;17.90;99.90;;;;;;5028800;28;20050;-82
2023/09/23 11:52:46;;;;;;;131.95;9.85;;;17.80;99.90;;;;;;5016482;28;20041;-80
2023/09/23 11:55:16;;;;;;;24.05;3.35;;;17.90;99.90;;;;;;5014218;28;20398;-81
2023/09/23 11:57:42;;;;;;;116.13;11.63;;;17.60;99.90;;;;;;5012580;28;20147;-81
2023/09/23 12:00:15;;;;;;;4.13;2.08;;;17.80;99.90;;;;;;5001262;28;20041;-83
2023/09/23 12:02:41;;;;;;;6.07;1.90;;;17.50;99.90;;;;;;5012417;28;20390;-81
2023/09/23 12:05:08;;;;;;;84.30;6.82;;;17.70;99.90;;;;;;5031603;28;20805;-81
2023/09/23 12:07:34;;;;;;;5.13;2.20;;;17.80;99.90;;;;;;5015721;28;20038;-81
2023/09/23 12:10:03;;;;;;;3.17;1.92;;;17.60;99.90;;;;;;5000163;28;20038;-83
2023/09/23 12:12:29;;;;;;;2.53;2.20;;;17.30;99.90;;;;;;5013225;28;20044;-79
2023/09/23 12:14:55;;;;;;;2.70;1.90;;;16.70;99.90;;;;;;4998316;28;20034;-82
2023/09/23 12:17:20;;;;;;;2.70;1.80;;;16.50;99.90;;;;;;5012107;28;20412;-83
2023/09/23 12:19:47;;;;;;;4.28;1.88;;;16.50;99.90;;;;;;5035385;28;20132;-83
2023/09/23 12:22:15;;;;;;;3.35;1.58;;;16.70;99.90;;;;;;5018403;28;20115;-84
2023/09/23 12:24:42;;;;;;;4.50;1.70;;;16.30;99.90;;;;;;5022093;28;20068;-83
2023/09/23 12:27:08;;;;;;;4.30;1.83;;;16.50;99.90;;;;;;5037930;28;20119;-84
2023/09/23 12:29:34;;;;;;;3.13;1.90;;;16.40;99.90;;;;;;5034460;28;20037;-84
2023/09/23 12:32:00;;;;;;;3.60;1.80;;;16.50;99.90;;;;;;5016208;28;20041;-84
2023/09/23 12:34:26;;;;;;;2.78;1.85;;;16.40;99.90;;;;;;5018256;28;20310;-84
2023/09/23 12:36:52;;;;;;;1.98;1.50;;;16.20;99.90;;;;;;5000143;28;20042;-85
2023/09/23 12:39:18;;;;;;;4.03;1.58;;;16.00;99.90;;;;;;5003832;28;20044;-84
2023/09/23 12:41:44;;;;;;;1.95;0.90;;;15.90;99.90;;;;;;5015750;28;20044;-84
2023/09/23 12:44:09;;;;;;;2.20;0.93;;;15.60;99.90;;;;;;5005417;28;20780;-85